sensor_id;sensor_type;location;lat;lon;timestamp;P1;durP1;ratioP1;P2;durP2;ratioP2
46953;SDS011;32707;43.886;12.874;2022-10-01T00:00:45;0.88;;;0.52;;
46953;SDS011;32707;43.886;12.874;2022-10-01T00:03:11;1.95;;;0.60;;
46953;SDS011;32707;43.886;12.874;2022-10-01T00:05:37;4.95;;;1.50;;
46953;SDS011;32707;43.886;12.874;2022-10-01T00:08:02;4.00;;;1.63;;
46953;SDS011;32707;43.886;12.874;2022-10-01T00:10:28;3.80;;;1.70;;
46953;SDS011;32707;43.886;12.874;2022-10-01T00:12:54;8.98;;;2.53;;
46953;SDS011;32707;43.886;12.874;2022-10-01T00:15:19;6.50;;;2.90;;
46953;SDS011;32707;43.886;12.874;2022-10-01T00:17:46;3.63;;;2.92;;
46953;SDS011;32707;43.886;12.874;2022-10-01T00:20:12;10.52;;;3.45;;
46953;SDS011;32707;43.886;12.874;2022-10-01T00:22:38;8.13;;;4.05;;
46953;SDS011;32707;43.886;12.874;2022-10-01T00:25:04;8.82;;;4.40;;
46953;SDS011;32707;43.886;12.874;2022-10-01T00:27:30;10.88;;;4.45;;
46953;SDS011;32707;43.886;12.874;2022-10-01T00:29:56;7.75;;;4.70;;
46953;SDS011;32707;43.886;12.874;2022-10-01T00:32:22;10.35;;;4.43;;
46953;SDS011;32707;43.886;12.874;2022-10-01T00:34:48;7.15;;;4.65;;
46953;SDS011;32707;43.886;12.874;2022-10-01T00:37:14;9.30;;;4.93;;
46953;SDS011;32707;43.886;12.874;2022-10-01T00:39:41;6.53;;;5.47;;
46953;SDS011;32707;43.886;12.874;2022-10-01T00:42:21;7.68;;;5.07;;
46953;SDS011;32707;43.886;12.874;2022-10-01T00:44:49;10.07;;;4.90;;
46953;SDS011;32707;43.886;12.874;2022-10-01T00:49:46;5.57;;;4.72;;
46953;SDS011;32707;43.886;12.874;2022-10-01T00:52:19;7.72;;;4.68;;
46953;SDS011;32707;43.886;12.874;2022-10-01T00:54:49;5.93;;;4.93;;
46953;SDS011;32707;43.886;12.874;2022-10-01T00:57:22;11.38;;;5.20;;
46953;SDS011;32707;43.886;12.874;2022-10-01T00:59:50;7.28;;;5.03;;
46953;SDS011;32707;43.886;12.874;2022-10-01T01:02:18;11.00;;;4.90;;
46953;SDS011;32707;43.886;12.874;2022-10-01T01:04:44;7.85;;;5.15;;
46953;SDS011;32707;43.886;12.874;2022-10-01T01:07:10;9.90;;;5.13;;
46953;SDS011;32707;43.886;12.874;2022-10-01T01:09:37;8.85;;;4.65;;
46953;SDS011;32707;43.886;12.874;2022-10-01T01:12:28;7.07;;;5.05;;
46953;SDS011;32707;43.886;12.874;2022-10-01T01:22:49;7.43;;;4.63;;
46953;SDS011;32707;43.886;12.874;2022-10-01T01:25:30;4.82;;;4.15;;
46953;SDS011;32707;43.886;12.874;2022-10-01T01:30:35;9.02;;;4.60;;
46953;SDS011;32707;43.886;12.874;2022-10-01T01:33:07;6.00;;;4.43;;
46953;SDS011;32707;43.886;12.874;2022-10-01T01:35:43;8.15;;;4.82;;
46953;SDS011;32707;43.886;12.874;2022-10-01T01:38:13;6.40;;;4.40;;
46953;SDS011;32707;43.886;12.874;2022-10-01T01:40:45;6.55;;;3.97;;
46953;SDS011;32707;43.886;12.874;2022-10-01T01:43:17;6.03;;;4.45;;
46953;SDS011;32707;43.886;12.874;2022-10-01T01:45:48;7.18;;;4.32;;
46953;SDS011;32707;43.886;12.874;2022-10-01T01:48:19;4.55;;;3.78;;
46953;SDS011;32707;43.886;12.874;2022-10-01T01:50:47;4.32;;;3.60;;
46953;SDS011;32707;43.886;12.874;2022-10-01T01:53:19;8.20;;;3.88;;
46953;SDS011;32707;43.886;12.874;2022-10-01T01:55:45;6.45;;;4.30;;
46953;SDS011;32707;43.886;12.874;2022-10-01T01:58:13;7.68;;;4.68;;
46953;SDS011;32707;43.886;12.874;2022-10-01T02:00:39;11.63;;;4.25;;
46953;SDS011;32707;43.886;12.874;2022-10-01T02:03:05;7.22;;;4.55;;
46953;SDS011;32707;43.886;12.874;2022-10-01T02:05:35;8.20;;;4.55;;
46953;SDS011;32707;43.886;12.874;2022-10-01T02:18:24;8.60;;;4.38;;
46953;SDS011;32707;43.886;12.874;2022-10-01T02:23:51;8.75;;;4.35;;
46953;SDS011;32707;43.886;12.874;2022-10-01T02:26:25;8.45;;;5.35;;
46953;SDS011;32707;43.886;12.874;2022-10-01T02:28:54;9.25;;;4.72;;
46953;SDS011;32707;43.886;12.874;2022-10-01T02:31:23;8.40;;;4.47;;
46953;SDS011;32707;43.886;12.874;2022-10-01T02:33:50;12.30;;;5.25;;
46953;SDS011;32707;43.886;12.874;2022-10-01T02:36:18;7.40;;;4.47;;
46953;SDS011;32707;43.886;12.874;2022-10-01T02:38:46;8.13;;;4.47;;
46953;SDS011;32707;43.886;12.874;2022-10-01T02:41:15;13.85;;;4.95;;
46953;SDS011;32707;43.886;12.874;2022-10-01T02:46:24;3.95;;;3.60;;
46953;SDS011;32707;43.886;12.874;2022-10-01T02:48:54;6.38;;;3.20;;
46953;SDS011;32707;43.886;12.874;2022-10-01T02:54:01;3.78;;;2.58;;
46953;SDS011;32707;43.886;12.874;2022-10-01T02:56:33;3.75;;;2.83;;
46953;SDS011;32707;43.886;12.874;2022-10-01T02:59:31;4.28;;;2.92;;
46953;SDS011;32707;43.886;12.874;2022-10-01T03:01:56;6.32;;;2.80;;
46953;SDS011;32707;43.886;12.874;2022-10-01T03:04:22;6.78;;;3.42;;
46953;SDS011;32707;43.886;12.874;2022-10-01T03:06:47;3.15;;;2.85;;
46953;SDS011;32707;43.886;12.874;2022-10-01T03:09:13;3.92;;;2.78;;
46953;SDS011;32707;43.886;12.874;2022-10-01T03:11:38;5.28;;;2.55;;
46953;SDS011;32707;43.886;12.874;2022-10-01T03:14:04;4.15;;;2.75;;
46953;SDS011;32707;43.886;12.874;2022-10-01T03:16:30;3.28;;;2.35;;
46953;SDS011;32707;43.886;12.874;2022-10-01T03:18:56;4.70;;;2.58;;
46953;SDS011;32707;43.886;12.874;2022-10-01T03:21:22;6.50;;;3.10;;
46953;SDS011;32707;43.886;12.874;2022-10-01T03:23:47;3.05;;;2.25;;
46953;SDS011;32707;43.886;12.874;2022-10-01T03:26:13;4.90;;;2.55;;
46953;SDS011;32707;43.886;12.874;2022-10-01T03:28:38;4.35;;;2.17;;
46953;SDS011;32707;43.886;12.874;2022-10-01T03:31:07;2.90;;;2.03;;
46953;SDS011;32707;43.886;12.874;2022-10-01T03:33:34;3.78;;;2.67;;
46953;SDS011;32707;43.886;12.874;2022-10-01T03:36:01;3.88;;;2.42;;
46953;SDS011;32707;43.886;12.874;2022-10-01T03:38:27;3.30;;;2.40;;
46953;SDS011;32707;43.886;12.874;2022-10-01T03:40:53;3.50;;;2.33;;
46953;SDS011;32707;43.886;12.874;2022-10-01T03:43:19;3.08;;;2.72;;
46953;SDS011;32707;43.886;12.874;2022-10-01T03:45:45;7.43;;;2.60;;
46953;SDS011;32707;43.886;12.874;2022-10-01T03:48:10;10.32;;;2.70;;
46953;SDS011;32707;43.886;12.874;2022-10-01T03:50:36;4.75;;;3.03;;
46953;SDS011;32707;43.886;12.874;2022-10-01T03:53:01;6.15;;;3.00;;
46953;SDS011;32707;43.886;12.874;2022-10-01T03:55:27;7.68;;;2.92;;
46953;SDS011;32707;43.886;12.874;2022-10-01T03:57:52;6.88;;;3.10;;
46953;SDS011;32707;43.886;12.874;2022-10-01T04:00:18;4.97;;;3.15;;
46953;SDS011;32707;43.886;12.874;2022-10-01T04:02:43;2.92;;;2.30;;
46953;SDS011;32707;43.886;12.874;2022-10-01T04:05:09;4.75;;;2.47;;
46953;SDS011;32707;43.886;12.874;2022-10-01T04:07:34;4.97;;;2.50;;
46953;SDS011;32707;43.886;12.874;2022-10-01T04:10:00;6.95;;;3.00;;
46953;SDS011;32707;43.886;12.874;2022-10-01T04:12:25;2.60;;;2.10;;
46953;SDS011;32707;43.886;12.874;2022-10-01T04:14:51;6.10;;;2.17;;
46953;SDS011;32707;43.886;12.874;2022-10-01T04:17:16;2.75;;;2.33;;
46953;SDS011;32707;43.886;12.874;2022-10-01T04:19:42;2.50;;;2.30;;
46953;SDS011;32707;43.886;12.874;2022-10-01T04:22:07;2.63;;;2.35;;
46953;SDS011;32707;43.886;12.874;2022-10-01T04:24:32;2.40;;;1.90;;
46953;SDS011;32707;43.886;12.874;2022-10-01T04:26:58;3.40;;;2.35;;
46953;SDS011;32707;43.886;12.874;2022-10-01T04:29:23;1.92;;;1.58;;
46953;SDS011;32707;43.886;12.874;2022-10-01T04:31:49;2.38;;;1.70;;
46953;SDS011;32707;43.886;12.874;2022-10-01T04:34:14;4.30;;;1.77;;
46953;SDS011;32707;43.886;12.874;2022-10-01T04:36:40;3.05;;;1.75;;
46953;SDS011;32707;43.886;12.874;2022-10-01T04:39:05;3.22;;;1.50;;
46953;SDS011;32707;43.886;12.874;2022-10-01T04:41:31;4.32;;;1.73;;
46953;SDS011;32707;43.886;12.874;2022-10-01T04:43:56;1.95;;;1.70;;
46953;SDS011;32707;43.886;12.874;2022-10-01T04:46:23;2.60;;;2.00;;
46953;SDS011;32707;43.886;12.874;2022-10-01T04:48:49;2.75;;;2.17;;
46953;SDS011;32707;43.886;12.874;2022-10-01T04:51:15;2.85;;;2.00;;
46953;SDS011;32707;43.886;12.874;2022-10-01T04:53:41;3.60;;;2.15;;
46953;SDS011;32707;43.886;12.874;2022-10-01T04:56:07;2.05;;;1.85;;
46953;SDS011;32707;43.886;12.874;2022-10-01T04:58:33;3.45;;;2.05;;
46953;SDS011;32707;43.886;12.874;2022-10-01T05:00:59;3.20;;;2.20;;
46953;SDS011;32707;43.886;12.874;2022-10-01T05:03:24;3.28;;;2.13;;
46953;SDS011;32707;43.886;12.874;2022-10-01T05:05:49;3.15;;;2.05;;
46953;SDS011;32707;43.886;12.874;2022-10-01T05:08:15;4.25;;;1.88;;
46953;SDS011;32707;43.886;12.874;2022-10-01T05:10:40;3.20;;;2.00;;
46953;SDS011;32707;43.886;12.874;2022-10-01T05:13:06;5.10;;;2.80;;
46953;SDS011;32707;43.886;12.874;2022-10-01T05:15:31;4.03;;;2.60;;
46953;SDS011;32707;43.886;12.874;2022-10-01T05:17:57;2.70;;;2.25;;
46953;SDS011;32707;43.886;12.874;2022-10-01T05:20:23;5.28;;;2.15;;
46953;SDS011;32707;43.886;12.874;2022-10-01T05:22:51;5.43;;;2.13;;
46953;SDS011;32707;43.886;12.874;2022-10-01T05:25:17;2.38;;;1.50;;
46953;SDS011;32707;43.886;12.874;2022-10-01T05:27:43;3.83;;;2.28;;
46953;SDS011;32707;43.886;12.874;2022-10-01T05:30:10;3.50;;;2.13;;
46953;SDS011;32707;43.886;12.874;2022-10-01T05:32:37;2.67;;;2.08;;
46953;SDS011;32707;43.886;12.874;2022-10-01T05:35:04;4.55;;;1.85;;
46953;SDS011;32707;43.886;12.874;2022-10-01T05:37:31;8.05;;;1.90;;
46953;SDS011;32707;43.886;12.874;2022-10-01T05:39:56;3.25;;;2.20;;
46953;SDS011;32707;43.886;12.874;2022-10-01T05:42:22;2.78;;;2.00;;
46953;SDS011;32707;43.886;12.874;2022-10-01T05:44:48;1.70;;;1.35;;
46953;SDS011;32707;43.886;12.874;2022-10-01T05:47:14;3.30;;;2.40;;
46953;SDS011;32707;43.886;12.874;2022-10-01T05:49:40;4.60;;;2.40;;
46953;SDS011;32707;43.886;12.874;2022-10-01T05:52:10;3.55;;;1.67;;
46953;SDS011;32707;43.886;12.874;2022-10-01T05:54:37;3.17;;;2.17;;
46953;SDS011;32707;43.886;12.874;2022-10-01T05:57:04;2.10;;;1.60;;
46953;SDS011;32707;43.886;12.874;2022-10-01T05:59:30;1.73;;;1.52;;
46953;SDS011;32707;43.886;12.874;2022-10-01T06:01:55;2.22;;;1.70;;
46953;SDS011;32707;43.886;12.874;2022-10-01T06:04:21;3.58;;;2.22;;
46953;SDS011;32707;43.886;12.874;2022-10-01T06:06:46;2.15;;;1.90;;
46953;SDS011;32707;43.886;12.874;2022-10-01T06:09:12;2.47;;;1.65;;
46953;SDS011;32707;43.886;12.874;2022-10-01T06:11:38;2.67;;;1.90;;
46953;SDS011;32707;43.886;12.874;2022-10-01T06:14:04;2.85;;;1.85;;
46953;SDS011;32707;43.886;12.874;2022-10-01T06:16:30;3.30;;;1.60;;
46953;SDS011;32707;43.886;12.874;2022-10-01T06:18:56;1.60;;;1.40;;
46953;SDS011;32707;43.886;12.874;2022-10-01T06:21:24;2.17;;;1.40;;
46953;SDS011;32707;43.886;12.874;2022-10-01T06:23:51;2.25;;;1.50;;
46953;SDS011;32707;43.886;12.874;2022-10-01T06:26:17;1.90;;;1.73;;
46953;SDS011;32707;43.886;12.874;2022-10-01T06:28:44;2.08;;;1.60;;
46953;SDS011;32707;43.886;12.874;2022-10-01T06:31:09;1.92;;;1.40;;
46953;SDS011;32707;43.886;12.874;2022-10-01T06:33:35;2.53;;;1.52;;
46953;SDS011;32707;43.886;12.874;2022-10-01T06:36:02;3.25;;;1.90;;
46953;SDS011;32707;43.886;12.874;2022-10-01T06:38:28;2.58;;;2.15;;
46953;SDS011;32707;43.886;12.874;2022-10-01T06:40:58;2.58;;;2.00;;
46953;SDS011;32707;43.886;12.874;2022-10-01T06:43:25;2.90;;;1.60;;
46953;SDS011;32707;43.886;12.874;2022-10-01T06:45:52;2.03;;;1.70;;
46953;SDS011;32707;43.886;12.874;2022-10-01T06:48:18;2.10;;;1.40;;
46953;SDS011;32707;43.886;12.874;2022-10-01T06:50:45;4.03;;;1.60;;
46953;SDS011;32707;43.886;12.874;2022-10-01T06:53:13;1.77;;;1.52;;
46953;SDS011;32707;43.886;12.874;2022-10-01T06:55:39;1.20;;;1.02;;
46953;SDS011;32707;43.886;12.874;2022-10-01T06:58:06;1.70;;;1.20;;
46953;SDS011;32707;43.886;12.874;2022-10-01T07:00:36;1.65;;;1.50;;
46953;SDS011;32707;43.886;12.874;2022-10-01T07:03:06;4.28;;;1.85;;
46953;SDS011;32707;43.886;12.874;2022-10-01T07:05:35;2.63;;;1.27;;
46953;SDS011;32707;43.886;12.874;2022-10-01T07:08:02;4.63;;;1.67;;
46953;SDS011;32707;43.886;12.874;2022-10-01T07:10:27;1.45;;;1.35;;
46953;SDS011;32707;43.886;12.874;2022-10-01T07:12:53;2.88;;;1.25;;
46953;SDS011;32707;43.886;12.874;2022-10-01T07:15:19;2.65;;;1.27;;
46953;SDS011;32707;43.886;12.874;2022-10-01T07:17:49;1.30;;;1.20;;
46953;SDS011;32707;43.886;12.874;2022-10-01T07:20:17;1.27;;;1.17;;
46953;SDS011;32707;43.886;12.874;2022-10-01T07:22:44;1.40;;;1.20;;
46953;SDS011;32707;43.886;12.874;2022-10-01T07:25:11;4.85;;;1.35;;
46953;SDS011;32707;43.886;12.874;2022-10-01T07:27:37;1.95;;;1.27;;
46953;SDS011;32707;43.886;12.874;2022-10-01T07:30:04;1.10;;;1.10;;
46953;SDS011;32707;43.886;12.874;2022-10-01T07:32:31;0.93;;;0.90;;
46953;SDS011;32707;43.886;12.874;2022-10-01T07:34:59;1.10;;;1.00;;
46953;SDS011;32707;43.886;12.874;2022-10-01T07:37:25;1.25;;;1.00;;
46953;SDS011;32707;43.886;12.874;2022-10-01T07:39:51;0.50;;;0.50;;
46953;SDS011;32707;43.886;12.874;2022-10-01T07:42:17;2.92;;;1.05;;
46953;SDS011;32707;43.886;12.874;2022-10-01T07:44:42;0.85;;;0.85;;
46953;SDS011;32707;43.886;12.874;2022-10-01T07:47:08;1.27;;;0.82;;
46953;SDS011;32707;43.886;12.874;2022-10-01T07:49:33;0.70;;;0.70;;
46953;SDS011;32707;43.886;12.874;2022-10-01T07:51:59;0.70;;;0.70;;
46953;SDS011;32707;43.886;12.874;2022-10-01T07:54:25;0.95;;;0.70;;
46953;SDS011;32707;43.886;12.874;2022-10-01T07:56:51;1.25;;;0.93;;
46953;SDS011;32707;43.886;12.874;2022-10-01T07:59:20;4.22;;;0.98;;
46953;SDS011;32707;43.886;12.874;2022-10-01T08:01:47;1.83;;;0.90;;
46953;SDS011;32707;43.886;12.874;2022-10-01T08:04:13;2.38;;;0.70;;
46953;SDS011;32707;43.886;12.874;2022-10-01T08:06:58;0.75;;;0.70;;
46953;SDS011;32707;43.886;12.874;2022-10-01T08:09:23;1.30;;;1.10;;
46953;SDS011;32707;43.886;12.874;2022-10-01T08:11:48;8.60;;;1.50;;
46953;SDS011;32707;43.886;12.874;2022-10-01T08:14:14;2.63;;;0.80;;
46953;SDS011;32707;43.886;12.874;2022-10-01T08:16:43;1.35;;;0.77;;
46953;SDS011;32707;43.886;12.874;2022-10-01T08:19:08;2.17;;;0.90;;
46953;SDS011;32707;43.886;12.874;2022-10-01T08:21:34;2.22;;;0.65;;
46953;SDS011;32707;43.886;12.874;2022-10-01T08:24:01;3.65;;;0.88;;
46953;SDS011;32707;43.886;12.874;2022-10-01T08:26:27;1.17;;;0.70;;
46953;SDS011;32707;43.886;12.874;2022-10-01T08:28:52;2.15;;;0.80;;
46953;SDS011;32707;43.886;12.874;2022-10-01T08:31:18;0.88;;;0.70;;
46953;SDS011;32707;43.886;12.874;2022-10-01T08:33:43;3.00;;;0.82;;
46953;SDS011;32707;43.886;12.874;2022-10-01T08:36:09;0.73;;;0.60;;
46953;SDS011;32707;43.886;12.874;2022-10-01T08:38:35;2.03;;;1.00;;
46953;SDS011;32707;43.886;12.874;2022-10-01T08:41:06;6.75;;;0.75;;
46953;SDS011;32707;43.886;12.874;2022-10-01T08:43:46;4.57;;;0.70;;
46953;SDS011;32707;43.886;12.874;2022-10-01T08:46:12;1.13;;;0.63;;
46953;SDS011;32707;43.886;12.874;2022-10-01T08:51:18;5.20;;;0.80;;
46953;SDS011;32707;43.886;12.874;2022-10-01T08:53:49;0.93;;;0.90;;
46953;SDS011;32707;43.886;12.874;2022-10-01T08:56:38;1.20;;;0.63;;
46953;SDS011;32707;43.886;12.874;2022-10-01T08:59:22;0.57;;;0.57;;
46953;SDS011;32707;43.886;12.874;2022-10-01T09:01:59;3.13;;;0.80;;
46953;SDS011;32707;43.886;12.874;2022-10-01T09:04:26;0.70;;;0.70;;
46953;SDS011;32707;43.886;12.874;2022-10-01T09:06:55;1.25;;;0.70;;
46953;SDS011;32707;43.886;12.874;2022-10-01T09:09:37;2.60;;;0.90;;
46953;SDS011;32707;43.886;12.874;2022-10-01T09:25:22;1.17;;;0.90;;
46953;SDS011;32707;43.886;12.874;2022-10-01T09:27:50;5.32;;;0.90;;
46953;SDS011;32707;43.886;12.874;2022-10-01T09:30:24;1.23;;;0.90;;
46953;SDS011;32707;43.886;12.874;2022-10-01T09:32:52;1.50;;;0.70;;
46953;SDS011;32707;43.886;12.874;2022-10-01T09:41:02;1.00;;;0.90;;
46953;SDS011;32707;43.886;12.874;2022-10-01T09:43:29;0.80;;;0.80;;
46953;SDS011;32707;43.886;12.874;2022-10-01T09:46:01;0.77;;;0.77;;
46953;SDS011;32707;43.886;12.874;2022-10-01T09:49:07;0.68;;;0.65;;
46953;SDS011;32707;43.886;12.874;2022-10-01T09:51:37;1.13;;;0.50;;
46953;SDS011;32707;43.886;12.874;2022-10-01T10:00:00;0.88;;;0.88;;
46953;SDS011;32707;43.886;12.874;2022-10-01T10:02:35;0.60;;;0.57;;
46953;SDS011;32707;43.886;12.874;2022-10-01T10:05:07;6.65;;;1.00;;
46953;SDS011;32707;43.886;12.874;2022-10-01T10:07:37;0.57;;;0.57;;
46953;SDS011;32707;43.886;12.874;2022-10-01T10:10:25;1.88;;;0.50;;
46953;SDS011;32707;43.886;12.874;2022-10-01T10:12:56;0.60;;;0.60;;
46953;SDS011;32707;43.886;12.874;2022-10-01T10:15:25;3.53;;;0.73;;
46953;SDS011;32707;43.886;12.874;2022-10-01T10:17:55;0.70;;;0.70;;
46953;SDS011;32707;43.886;12.874;2022-10-01T10:20:37;1.17;;;0.60;;
46953;SDS011;32707;43.886;12.874;2022-10-01T10:23:10;0.77;;;0.77;;
46953;SDS011;32707;43.886;12.874;2022-10-01T10:25:40;0.50;;;0.50;;
46953;SDS011;32707;43.886;12.874;2022-10-01T10:28:14;0.52;;;0.52;;
46953;SDS011;32707;43.886;12.874;2022-10-01T10:30:51;0.60;;;0.50;;
46953;SDS011;32707;43.886;12.874;2022-10-01T10:33:19;0.40;;;0.40;;
46953;SDS011;32707;43.886;12.874;2022-10-01T10:35:55;0.98;;;0.60;;
46953;SDS011;32707;43.886;12.874;2022-10-01T10:38:25;0.75;;;0.60;;
46953;SDS011;32707;43.886;12.874;2022-10-01T10:40:55;0.60;;;0.60;;
46953;SDS011;32707;43.886;12.874;2022-10-01T10:43:22;2.25;;;0.50;;
46953;SDS011;32707;43.886;12.874;2022-10-01T10:45:58;0.55;;;0.50;;
46953;SDS011;32707;43.886;12.874;2022-10-01T10:48:26;2.70;;;0.88;;
46953;SDS011;32707;43.886;12.874;2022-10-01T10:50:59;17.02;;;2.38;;
46953;SDS011;32707;43.886;12.874;2022-10-01T10:53:28;0.82;;;0.75;;
46953;SDS011;32707;43.886;12.874;2022-10-01T10:56:04;0.82;;;0.75;;
46953;SDS011;32707;43.886;12.874;2022-10-01T10:58:31;2.90;;;0.88;;
46953;SDS011;32707;43.886;12.874;2022-10-01T11:00:59;0.77;;;0.77;;
46953;SDS011;32707;43.886;12.874;2022-10-01T11:03:34;6.68;;;0.95;;
46953;SDS011;32707;43.886;12.874;2022-10-01T11:06:07;1.70;;;0.70;;
46953;SDS011;32707;43.886;12.874;2022-10-01T11:08:38;6.63;;;1.00;;
46953;SDS011;32707;43.886;12.874;2022-10-01T11:11:08;1.50;;;0.45;;
46953;SDS011;32707;43.886;12.874;2022-10-01T11:30:46;1.25;;;0.50;;
46953;SDS011;32707;43.886;12.874;2022-10-01T11:36:12;0.95;;;0.50;;
46953;SDS011;32707;43.886;12.874;2022-10-01T11:39:03;6.82;;;1.13;;
46953;SDS011;32707;43.886;12.874;2022-10-01T11:41:38;1.50;;;0.50;;
46953;SDS011;32707;43.886;12.874;2022-10-01T11:46:57;2.35;;;0.50;;
46953;SDS011;32707;43.886;12.874;2022-10-01T11:55:01;0.40;;;0.40;;
46953;SDS011;32707;43.886;12.874;2022-10-01T11:58:06;9.88;;;0.85;;
46953;SDS011;32707;43.886;12.874;2022-10-01T12:01:10;5.28;;;0.60;;
46953;SDS011;32707;43.886;12.874;2022-10-01T12:04:00;5.35;;;0.77;;
46953;SDS011;32707;43.886;12.874;2022-10-01T12:06:43;8.18;;;0.50;;
46953;SDS011;32707;43.886;12.874;2022-10-01T12:09:45;0.65;;;0.20;;
46953;SDS011;32707;43.886;12.874;2022-10-01T12:12:25;8.07;;;0.73;;
46953;SDS011;32707;43.886;12.874;2022-10-01T12:15:11;0.52;;;0.30;;
46953;SDS011;32707;43.886;12.874;2022-10-01T12:18:03;0.30;;;0.30;;
46953;SDS011;32707;43.886;12.874;2022-10-01T12:20:39;0.38;;;0.30;;
46953;SDS011;32707;43.886;12.874;2022-10-01T12:23:22;1.08;;;0.40;;
46953;SDS011;32707;43.886;12.874;2022-10-01T12:29:00;0.40;;;0.35;;
46953;SDS011;32707;43.886;12.874;2022-10-01T12:31:13;1.13;;;0.50;;
46953;SDS011;32707;43.886;12.874;2022-10-01T12:36:44;1.52;;;0.40;;
46953;SDS011;32707;43.886;12.874;2022-10-01T12:39:38;1.40;;;0.40;;
46953;SDS011;32707;43.886;12.874;2022-10-01T12:42:50;1.03;;;0.30;;
46953;SDS011;32707;43.886;12.874;2022-10-01T12:54:12;0.43;;;0.30;;
46953;SDS011;32707;43.886;12.874;2022-10-01T12:57:23;2.72;;;0.40;;
46953;SDS011;32707;43.886;12.874;2022-10-01T13:10:57;0.30;;;0.30;;
46953;SDS011;32707;43.886;12.874;2022-10-01T13:13:31;1.42;;;0.50;;
46953;SDS011;32707;43.886;12.874;2022-10-01T13:16:11;0.40;;;0.40;;
46953;SDS011;32707;43.886;12.874;2022-10-01T13:23:50;1.42;;;0.43;;
46953;SDS011;32707;43.886;12.874;2022-10-01T13:26:30;0.50;;;0.50;;
46953;SDS011;32707;43.886;12.874;2022-10-01T13:32:01;0.20;;;0.20;;
46953;SDS011;32707;43.886;12.874;2022-10-01T13:34:38;0.60;;;0.40;;
46953;SDS011;32707;43.886;12.874;2022-10-01T13:43:01;0.45;;;0.40;;
46953;SDS011;32707;43.886;12.874;2022-10-01T13:45:48;1.48;;;0.43;;
46953;SDS011;32707;43.886;12.874;2022-10-01T13:51:11;0.93;;;0.43;;
46953;SDS011;32707;43.886;12.874;2022-10-01T13:53:45;0.93;;;0.38;;
46953;SDS011;32707;43.886;12.874;2022-10-01T13:56:24;0.88;;;0.38;;
46953;SDS011;32707;43.886;12.874;2022-10-01T13:58:53;0.40;;;0.40;;
46953;SDS011;32707;43.886;12.874;2022-10-01T14:06:56;0.55;;;0.40;;
46953;SDS011;32707;43.886;12.874;2022-10-01T14:12:17;0.98;;;0.40;;
46953;SDS011;32707;43.886;12.874;2022-10-01T14:15:12;2.08;;;0.60;;
46953;SDS011;32707;43.886;12.874;2022-10-01T14:17:58;3.10;;;0.43;;
46953;SDS011;32707;43.886;12.874;2022-10-01T14:26:38;2.08;;;0.35;;
46953;SDS011;32707;43.886;12.874;2022-10-01T14:29:30;0.38;;;0.38;;
46953;SDS011;32707;43.886;12.874;2022-10-01T14:32:29;2.90;;;0.50;;
46953;SDS011;32707;43.886;12.874;2022-10-01T14:35:34;2.28;;;0.30;;
46953;SDS011;32707;43.886;12.874;2022-10-01T14:38:04;2.28;;;0.47;;
46953;SDS011;32707;43.886;12.874;2022-10-01T14:40:40;0.57;;;0.40;;
46953;SDS011;32707;43.886;12.874;2022-10-01T14:43:20;0.30;;;0.30;;
46953;SDS011;32707;43.886;12.874;2022-10-01T14:45:59;1.23;;;0.50;;
46953;SDS011;32707;43.886;12.874;2022-10-01T14:48:33;0.50;;;0.45;;
46953;SDS011;32707;43.886;12.874;2022-10-01T14:51:03;0.65;;;0.60;;
46953;SDS011;32707;43.886;12.874;2022-10-01T14:53:34;1.13;;;0.60;;
46953;SDS011;32707;43.886;12.874;2022-10-01T14:56:05;1.00;;;0.40;;
46953;SDS011;32707;43.886;12.874;2022-10-01T14:58:34;0.60;;;0.60;;
46953;SDS011;32707;43.886;12.874;2022-10-01T15:01:05;0.40;;;0.40;;
46953;SDS011;32707;43.886;12.874;2022-10-01T15:03:39;0.40;;;0.40;;
46953;SDS011;32707;43.886;12.874;2022-10-01T15:06:14;0.50;;;0.50;;
46953;SDS011;32707;43.886;12.874;2022-10-01T15:08:42;1.40;;;0.47;;
46953;SDS011;32707;43.886;12.874;2022-10-01T15:11:11;2.05;;;0.50;;
46953;SDS011;32707;43.886;12.874;2022-10-01T15:13:43;0.23;;;0.23;;
46953;SDS011;32707;43.886;12.874;2022-10-01T15:16:13;0.60;;;0.47;;
46953;SDS011;32707;43.886;12.874;2022-10-01T15:18:41;0.40;;;0.40;;
46953;SDS011;32707;43.886;12.874;2022-10-01T15:21:23;1.73;;;0.40;;
46953;SDS011;32707;43.886;12.874;2022-10-01T15:23:51;1.02;;;0.38;;
46953;SDS011;32707;43.886;12.874;2022-10-01T15:26:19;0.77;;;0.70;;
46953;SDS011;32707;43.886;12.874;2022-10-01T15:28:49;2.60;;;0.40;;
46953;SDS011;32707;43.886;12.874;2022-10-01T15:31:29;0.52;;;0.40;;
46953;SDS011;32707;43.886;12.874;2022-10-01T15:33:56;0.60;;;0.30;;
46953;SDS011;32707;43.886;12.874;2022-10-01T15:36:25;4.43;;;0.52;;
46953;SDS011;32707;43.886;12.874;2022-10-01T15:38:51;0.43;;;0.35;;
46953;SDS011;32707;43.886;12.874;2022-10-01T15:41:22;0.43;;;0.40;;
46953;SDS011;32707;43.886;12.874;2022-10-01T15:43:53;4.15;;;0.40;;
46953;SDS011;32707;43.886;12.874;2022-10-01T15:49:16;0.20;;;0.20;;
46953;SDS011;32707;43.886;12.874;2022-10-01T15:51:45;1.90;;;0.63;;
46953;SDS011;32707;43.886;12.874;2022-10-01T15:54:37;1.00;;;0.43;;
46953;SDS011;32707;43.886;12.874;2022-10-01T15:57:05;1.33;;;0.40;;
46953;SDS011;32707;43.886;12.874;2022-10-01T15:59:31;1.15;;;0.60;;
46953;SDS011;32707;43.886;12.874;2022-10-01T16:01:58;1.40;;;0.70;;
46953;SDS011;32707;43.886;12.874;2022-10-01T16:04:24;0.52;;;0.50;;
46953;SDS011;32707;43.886;12.874;2022-10-01T16:06:50;0.65;;;0.45;;
46953;SDS011;32707;43.886;12.874;2022-10-01T16:09:22;0.30;;;0.30;;
46953;SDS011;32707;43.886;12.874;2022-10-01T16:11:53;4.13;;;0.50;;
46953;SDS011;32707;43.886;12.874;2022-10-01T16:19:46;1.40;;;0.75;;
46953;SDS011;32707;43.886;12.874;2022-10-01T16:24:44;8.60;;;0.60;;
46953;SDS011;32707;43.886;12.874;2022-10-01T16:27:17;1.08;;;0.50;;
46953;SDS011;32707;43.886;12.874;2022-10-01T16:29:51;9.93;;;0.88;;
46953;SDS011;32707;43.886;12.874;2022-10-01T16:32:19;2.67;;;0.63;;
46953;SDS011;32707;43.886;12.874;2022-10-01T16:34:45;4.13;;;0.80;;
46953;SDS011;32707;43.886;12.874;2022-10-01T16:37:10;2.45;;;0.75;;
46953;SDS011;32707;43.886;12.874;2022-10-01T16:39:36;2.15;;;0.52;;
46953;SDS011;32707;43.886;12.874;2022-10-01T16:42:01;2.53;;;0.85;;
46953;SDS011;32707;43.886;12.874;2022-10-01T16:44:28;0.63;;;0.30;;
46953;SDS011;32707;43.886;12.874;2022-10-01T16:46:53;1.38;;;0.40;;
46953;SDS011;32707;43.886;12.874;2022-10-01T16:49:20;3.30;;;0.47;;
46953;SDS011;32707;43.886;12.874;2022-10-01T16:51:51;3.28;;;0.63;;
46953;SDS011;32707;43.886;12.874;2022-10-01T16:54:24;1.48;;;0.55;;
46953;SDS011;32707;43.886;12.874;2022-10-01T16:56:51;1.65;;;0.45;;
46953;SDS011;32707;43.886;12.874;2022-10-01T16:59:22;1.05;;;0.20;;
46953;SDS011;32707;43.886;12.874;2022-10-01T17:01:49;2.85;;;0.47;;
46953;SDS011;32707;43.886;12.874;2022-10-01T17:04:18;4.47;;;0.30;;
46953;SDS011;32707;43.886;12.874;2022-10-01T17:06:44;4.63;;;0.68;;
46953;SDS011;32707;43.886;12.874;2022-10-01T17:09:10;1.92;;;0.60;;
46953;SDS011;32707;43.886;12.874;2022-10-01T17:11:35;6.20;;;0.60;;
46953;SDS011;32707;43.886;12.874;2022-10-01T17:14:03;0.82;;;0.40;;
46953;SDS011;32707;43.886;12.874;2022-10-01T17:16:34;2.85;;;0.80;;
46953;SDS011;32707;43.886;12.874;2022-10-01T17:19:00;6.78;;;0.30;;
46953;SDS011;32707;43.886;12.874;2022-10-01T17:21:28;1.15;;;0.65;;
46953;SDS011;32707;43.886;12.874;2022-10-01T17:23:53;2.67;;;0.40;;
46953;SDS011;32707;43.886;12.874;2022-10-01T17:26:19;1.55;;;0.40;;